Aviation Digital Data Service (ADDS)

Output produced by METARs form (1723 UTC 21 September 2019)
found at http://aviationweather.gov/metar/data/
 
METAR text: EYKA 211720Z 27011KT 9999 FEW015 13/10 Q1015
Conditions at: EYKA (KAUNAS , LT) observed 1720 UTC 21 September 2019
Temperature: 13.0°C (55°F)
Dewpoint: 10.0°C (50°F) [RH = 82%]
Pressure (altimeter): 29.97 inches Hg (1015.0 mb)
Winds: from the W (270 degrees) at 13 MPH (11 knots; 5.7 m/s)
Visibility: 6 or more miles (10+ km)
Ceiling: at least 12,000 feet AGL
Clouds: few clouds at 1500 feet AGL
Weather: no significant weather observed at this time

METAR text: EYKA 211650Z 27011KT 9999 SCT033 BKN036 14/10 Q1015
Conditions at: EYKA (KAUNAS , LT) observed 1650 UTC 21 September 2019
Temperature: 14.0°C (57°F)
Dewpoint: 10.0°C (50°F) [RH = 77%]
Pressure (altimeter): 29.97 inches Hg (1015.0 mb)
Winds: from the W (270 degrees) at 13 MPH (11 knots; 5.7 m/s)
Visibility: 6 or more miles (10+ km)
Ceiling: 3600 feet AGL
Clouds: scattered clouds at 3300 feet AGL
broken clouds at 3600 feet AGL
Weather: no significant weather observed at this time

METAR text: EYKA 211620Z 27011KT 240V300 9999 OVC036 14/10 Q1015
Conditions at: EYKA (KAUNAS , LT) observed 1620 UTC 21 September 2019
Temperature: 14.0°C (57°F)
Dewpoint: 10.0°C (50°F) [RH = 77%]
Pressure (altimeter): 29.97 inches Hg (1015.0 mb)
Winds: from the W (270 degrees) at 13 MPH (11 knots; 5.7 m/s)
Visibility: 6 or more miles (10+ km)
Ceiling: 3600 feet AGL
Clouds: overcast cloud deck at 3600 feet AGL
Weather: no significant weather observed at this time

METAR text: EYKA 211550Z 28013KT 250V340 9999 FEW021 BKN027 OVC030 14/10 Q1014
Conditions at: EYKA (KAUNAS , LT) observed 1550 UTC 21 September 2019
Temperature: 14.0°C (57°F)
Dewpoint: 10.0°C (50°F) [RH = 77%]
Pressure (altimeter): 29.94 inches Hg (1014.0 mb)
Winds: from the W (280 degrees) at 15 MPH (13 knots; 6.7 m/s)
Visibility: 6 or more miles (10+ km)
Ceiling: 2700 feet AGL
Clouds: few clouds at 2100 feet AGL
broken clouds at 2700 feet AGL
overcast cloud deck at 3000 feet AGL
Weather: no significant weather observed at this time

Forecast for: EYKA (KAUNAS , LT)
Text: TAF EYKA 211700Z 2118/2218 28010KT 6000 BKN015
Forecast period: 1800 UTC 21 September 2019 to 0000 UTC 22 September 2019
Forecast type: FROM: standard forecast or significant change
Winds: from the W (280 degrees) at 12 MPH (10 knots; 5.1 m/s)
Visibility: 4 miles (6 km)
Ceiling: 1500 feet AGL
Clouds: broken clouds at 1500 feet AGL
Weather: no significant weather forecast for this period
Text: PROB40
Forecast period: 1800 to 2100 UTC 21 September 2019
Forecast type: TEMPORARY: The following changes expected for less than half the time period
Visibility: missing
Ceiling: 1000 feet AGL
Clouds: scattered clouds at 500 feet AGL
broken clouds at 1000 feet AGL
Weather: no significant weather forecast for this period
Text: TEMPO 2118/2121 SCT005 BKN010
Forecast period: 2100 UTC 21 September 2019 to 0000 UTC 22 September 2019
Forecast type: TEMPORARY: The following changes expected for less than half the time period
Visibility: missing
Ceiling: 500 feet AGL
Clouds: broken clouds at 500 feet AGL
broken clouds at 1000 feet AGL
Weather: no significant weather forecast for this period
Text: TEMPO 2121/2124 BKN005 BKN010
Forecast period: 0000 to 0900 UTC 22 September 2019
Forecast type: FROM: standard forecast or significant change
Visibility: missing
Ceiling: 500 feet AGL
Clouds: overcast cloud deck at 500 feet AGL
Weather: no significant weather forecast for this period
Text: FM220000 OVC005
Forecast period: 0000 to 0700 UTC 22 September 2019
Forecast type: TEMPORARY: The following changes expected for less than half the time period
Visibility: 0.93 miles (1.50 km)
Ceiling: 300 feet AGL
Clouds: overcast cloud deck at 300 feet AGL
Weather: BR  (mist)
Text: TEMPO 2200/2207 1500 BR OVC003
Forecast period: 0900 to 1800 UTC 22 September 2019
Forecast type: BECOMING: Conditions expected to become as follows by 1000 UTC 22 September 2019
Visibility: missing
Ceiling: 1500 feet AGL
Clouds: overcast cloud deck at 1500 feet AGL
Weather: no significant weather forecast for this period
Text: BECMG 2209/2210 OVC015
Forecast period: 1500 to 1800 UTC 22 September 2019
Forecast type: TEMPORARY: The following changes expected for less than half the time period
Winds: from the NNE (30 degrees) at 14 MPH (12 knots; 6.2 m/s)
Visibility: missing
Ceiling: 2000 feet AGL
Clouds: broken clouds at 2000 feet AGL
Weather: SHRA  (rain showers)